Latest Weather Observations for Lajamanu

IDD60801

Issued at 9:35 am CST Sunday 26 October 2014 (issued every 30 minutes, with the page automatically refreshed every 10 minutes)

About weather observations | Map of weather stations | Latest weather observations for NT | Other Formats
Station Details ID: 014829 Name: LAJAMANU AIRPORT Lat: -18.33 Lon: 130.64 Height: 315.6 m
Data from the previous 72 hours. | See also: Recent months at Lajamanu
Date/Time
CST
Temp
°C
App
Temp
°C
Dew
Point
Rel
Hum
%
Delta-T
°C
Wind Press
QNH
hPa
Press
MSL
hPa
Rain
since 9 am
mm
Dir
 
Spd
km/h
Gust
km/h
Spd
kts
Gust
kts
26/09:30am 33.0 27.3 2.9 15 15.6 N 22 30 12 16 1015.9 1013.8 0.0
26/09:00am 31.7 25.9 4.5 18 14.4 N 24 33 13 18 1016.0 1013.9 0.0
26/08:30am 31.0 25.3 4.7 19 13.9 N 24 39 13 21 1015.9 1013.8 0.0
26/08:00am 29.7 24.5 3.6 19 13.4 N 20 28 11 15 1015.6 1013.5 0.0
26/07:30am 28.2 24.2 3.1 20 12.7 N 13 19 7 10 1015.4 1013.3 0.0
26/07:00am 26.9 23.1 4.0 23 11.7 N 13 20 7 11 1015.0 1012.9 0.0
26/06:30am 22.9 20.9 7.0 36 8.3 NE 7 11 4 6 1014.7 1012.5 0.0
26/06:00am 21.4 20.9 8.0 42 7.1 CALM 0 0 0 0 1014.2 1012.0 0.0
26/05:30am 21.8 20.5 7.6 40 7.5 NW 4 7 2 4 1013.9 1011.7 0.0
26/05:00am 22.0 21.2 6.7 37 7.9 CALM 0 0 0 0 1013.6 1011.4 0.0
26/04:30am 22.8 20.7 5.7 33 8.8 NNE 6 9 3 5 1013.2 1011.0 0.0
26/04:00am 23.7 21.8 6.5 33 9.0 ENE 6 13 3 7 1013.2 1011.0 0.0
26/03:30am 23.7 20.9 6.9 34 8.8 ENE 11 13 6 7 1013.1 1010.9 0.0
26/03:00am 23.0 22.2 6.3 34 8.7 CALM 0 0 0 0 1012.6 1010.5 0.0
26/02:30am 23.6 22.1 6.8 34 8.8 S 4 9 2 5 1013.0 1010.8 0.0
26/02:00am 22.6 21.3 6.0 34 8.5 S 2 7 1 4 1013.1 1010.9 0.0
26/01:30am 24.0 22.0 6.3 32 9.2 SSW 6 9 3 5 1013.3 1011.1 0.0
26/01:00am 23.5 21.2 4.9 30 9.4 NNE 6 9 3 5 1013.4 1011.2 0.0
26/12:30am 26.7 23.9 5.1 25 11.2 NE 9 11 5 6 1013.7 1011.5 0.0
26/12:00am 26.3 24.0 4.7 25 11.1 E 6 7 3 4 1014.1 1011.9 0.0
 
Date/Time
CST
Temp
°C
App
Temp
°C
Dew
Point
Rel
Hum
%
Delta-T
°C
Wind Press
QNH
hPa
Press
MSL
hPa
Rain
since 9 am
mm
Dir
 
Spd
km/h
Gust
km/h
Spd
kts
Gust
kts
25/11:30pm 28.6 25.3 4.8 22 12.4 NE 11 13 6 7 1014.2 1012.0 0.0
25/11:00pm 27.1 24.2 4.8 24 11.5 E 9 13 5 7 1014.5 1012.3 0.0
25/10:30pm 26.9 24.5 5.2 25 11.3 E 7 9 4 5 1014.5 1012.3 0.0
25/10:00pm 26.9 24.4 4.6 24 11.5 ENE 7 9 4 5 1014.5 1012.3 0.0
25/09:30pm 28.1 25.3 5.0 23 12.1 NE 9 11 5 6 1014.4 1012.2 0.0
25/09:00pm 27.1 26.1 5.4 25 11.3 CALM 0 0 0 0 1014.3 1012.1 0.0
25/08:30pm 28.5 27.3 4.7 22 12.4 CALM 0 0 0 0 1014.0 1011.8 0.0
25/08:00pm 30.2 29.0 4.8 20 13.4 CALM 0 0 0 0 1013.7 1011.5 0.0
25/07:30pm 31.1 28.5 4.0 18 14.2 ESE 7 9 4 5 1013.4 1011.2 0.0
25/07:00pm 33.1 29.9 3.0 15 15.6 E 9 11 5 6 1013.2 1011.0 0.0
25/06:30pm 34.9 31.0 3.5 14 16.6 E 13 19 7 10 1012.8 1010.6 0.0
25/06:00pm 36.2 31.9 3.4 13 17.5 E 15 22 8 12 1012.4 1010.3 0.0
25/05:30pm 35.9 32.0 3.2 13 17.3 NNE 13 20 7 11 1012.2 1010.1 0.0
25/05:00pm 37.5 32.8 3.3 12 18.3 E 17 22 9 12 1012.0 1009.8 0.0
25/04:30pm 36.7 31.3 2.7 12 18.0 ENE 20 28 11 15 1012.2 1010.1 0.0
25/04:00pm 38.1 33.9 3.8 12 18.6 NE 15 26 8 14 1012.4 1010.3 0.0
25/03:30pm 37.0 32.8 4.0 13 17.8 NE 15 24 8 13 1012.5 1010.4 0.0
25/03:00pm 37.2 32.7 4.2 13 17.9 ESE 17 28 9 15 1012.9 1010.7 0.0
25/02:30pm 36.7 32.9 3.8 13 17.7 ENE 13 20 7 11 1013.3 1011.1 0.0
25/02:00pm 37.2 31.4 4.2 13 17.9 ENE 24 41 13 22 1013.6 1011.4 0.0
25/01:30pm 36.4 30.4 3.6 13 17.5 NE 24 33 13 18 1014.0 1011.8 0.0
25/01:00pm 35.8 30.0 4.2 14 17.0 E 24 35 13 19 1014.6 1012.4 0.0
25/12:30pm 37.6 32.8 5.6 14 17.7 NE 20 37 11 20 1015.1 1013.0 0.0
25/12:00pm 35.9 30.3 5.2 15 16.8 NE 24 37 13 20 1015.7 1013.6 0.0
25/11:30am 35.2 30.8 7.3 18 15.7 N 20 33 11 18 1016.0 1013.9 0.0
25/11:00am 34.8 30.1 7.8 19 15.3 N 22 35 12 19 1016.5 1014.3 0.0
25/10:30am 34.0 28.4 7.1 19 15.0 N 26 33 14 18 1016.8 1014.6 0.0
25/10:00am 33.2 27.5 6.5 19 14.7 N 26 35 14 19 1017.2 1015.0 0.0
25/09:30am 32.8 26.6 6.2 19 14.5 N 28 37 15 20 1017.5 1015.3 0.0
25/09:00am 32.0 25.1 4.7 18 14.5 NNE 30 44 16 24 1017.5 1015.3 0.0
25/08:30am 30.9 25.5 4.6 19 13.8 NNE 22 35 12 19 1017.7 1015.5 0.0
25/08:00am 29.3 23.7 5.4 22 12.6 N 24 35 13 19 1016.9 1014.7 0.0
25/07:30am 27.7 23.0 5.9 25 11.5 N 20 32 11 17 1016.5 1014.3 0.0
25/07:00am 26.1 21.9 5.7 27 10.7 N 17 22 9 12 1015.9 1013.8 0.0
25/06:30am 25.5 21.2 5.1 27 10.5 N 17 24 9 13 1015.5 1013.4 0.0
25/06:00am 25.2 20.7 4.3 26 10.6 N 17 20 9 11 1015.3 1013.2 0.0
25/05:30am 25.4 21.1 3.4 24 11.0 N 15 20 8 11 1014.7 1012.5 0.0
25/05:00am 26.0 21.3 3.3 23 11.3 N 17 22 9 12 1014.4 1012.2 0.0
25/04:30am 26.3 21.6 2.9 22 11.6 NNE 17 20 9 11 1014.1 1011.9 0.0
25/04:00am 24.0 20.8 2.8 25 10.4 ENE 9 11 5 6 1013.8 1011.6 0.0
25/03:30am 24.3 21.1 3.0 25 10.5 ENE 9 11 5 6 1013.4 1011.2 0.0
25/03:00am 24.9 21.7 3.0 24 10.8 ENE 9 11 5 6 1013.4 1011.2 0.0
25/02:30am 24.8 21.3 3.5 25 10.6 NE 11 13 6 7 1013.5 1011.3 0.0
25/02:00am 25.4 22.2 2.8 23 11.2 ENE 9 13 5 7 1013.6 1011.4 0.0
25/01:30am 25.1 21.9 3.1 24 10.9 E 9 11 5 6 1013.8 1011.6 0.0
25/01:00am 25.9 22.5 3.8 24 11.1 ENE 11 13 6 7 1014.0 1011.8 0.0
25/12:30am 25.9 22.5 3.8 24 11.1 ENE 11 11 6 6 1014.0 1011.8 0.0
25/12:00am 25.5 22.5 4.0 25 10.8 ENE 9 11 5 6 1014.1 1011.9 0.0
 
Date/Time
CST
Temp
°C
App
Temp
°C
Dew
Point
Rel
Hum
%
Delta-T
°C
Wind Press
QNH
hPa
Press
MSL
hPa
Rain
since 9 am
mm
Dir
 
Spd
km/h
Gust
km/h
Spd
kts
Gust
kts
24/11:30pm 25.5 22.4 3.5 24 11.0 E 9 11 5 6 1014.2 1012.0 0.0
24/11:00pm 25.9 22.7 3.2 23 11.3 E 9 11 5 6 1014.2 1012.0 0.0
24/10:30pm 27.7 24.6 3.4 21 12.3 ENE 9 13 5 7 1014.2 1012.0 0.0
24/10:00pm 27.8 24.4 4.2 22 12.1 E 11 11 6 6 1014.0 1011.8 0.0
24/09:30pm 28.1 24.8 4.4 22 12.2 E 11 13 6 7 1013.8 1011.6 0.0
24/09:00pm 27.5 24.6 4.5 23 11.9 E 9 11 5 6 1013.6 1011.4 0.0
24/08:30pm 28.7 25.8 4.9 22 12.4 ESE 9 9 5 5 1013.2 1011.0 0.0
24/08:00pm 29.8 27.2 4.4 20 13.3 ESE 7 7 4 4 1012.9 1010.7 0.0
24/07:30pm 31.2 28.6 4.1 18 14.2 ESE 7 9 4 5 1012.4 1010.3 0.0
24/07:00pm 33.6 29.7 3.4 15 15.8 E 13 15 7 8 1012.1 1010.0 0.0
24/06:30pm 35.2 31.0 3.7 14 16.8 E 15 20 8 11 1011.8 1009.6 0.0
24/06:00pm 36.5 31.7 2.5 12 17.9 ESE 17 22 9 12 1011.5 1009.3 0.0
24/05:30pm 37.1 32.8 3.0 12 18.1 E 15 26 8 14 1011.3 1009.1 0.0
24/05:00pm 37.6 33.1 2.1 11 18.7 ENE 15 26 8 14 1011.2 1009.0 0.0
24/04:30pm 37.9 34.2 2.4 11 18.8 ESE 11 24 6 13 1011.2 1009.0 0.0
24/04:00pm 38.3 34.0 1.3 10 19.3 ESE 13 20 7 11 1011.5 1009.3 0.0
24/03:30pm 38.0 32.0 1.1 10 19.2 E 22 33 12 18 1011.7 1009.5 0.0
24/03:00pm 38.1 33.1 1.2 10 19.2 ENE 17 20 9 11 1011.8 1009.6 0.0
24/02:30pm 37.0 32.8 1.7 11 18.4 N 13 22 7 12 1012.2 1010.1 0.0
24/02:16pm 38.0 30.7 2.4 11 18.8 ENE 30 43 16 23 1012.4 1010.3 0.0
24/02:00pm 38.0 34.9 3.7 12 18.5 N 9 13 5 7 1012.6 1010.5 0.0
24/01:30pm 37.9 32.7 2.4 11 18.8 ENE 19 39 10 21 1013.3 1011.1 0.0
24/01:00pm 37.6 31.0 2.1 11 18.7 ENE 26 35 14 19 1013.9 1011.7 0.0
24/12:30pm 36.3 30.7 5.5 15 16.9 NE 24 41 13 22 1014.4 1012.2 0.0
24/12:00pm 37.0 32.7 7.9 17 16.7 N 20 26 11 14 1014.8 1012.6 0.0
24/11:30am 36.2 32.4 8.9 19 15.8 NNE 19 26 10 14 1015.2 1013.1 0.0
24/11:00am 35.6 31.4 8.4 19 15.6 NNE 20 30 11 16 1015.5 1013.4 0.0
24/10:30am 34.4 30.2 8.2 20 14.9 NNE 20 33 11 18 1015.8 1013.7 0.0
24/10:00am 33.9 29.4 8.5 21 14.5 NNE 22 32 12 17 1015.9 1013.8 0.0
24/09:30am 32.4 26.2 8.0 22 13.7 N 30 41 16 22 1015.6 1013.5 0.0
24/09:00am 31.3 26.0 8.3 24 12.9 N 26 39 14 21 1015.6 1013.5 0.0
24/08:30am 29.8 23.9 7.7 25 12.2 N 28 39 15 21 1015.4 1013.3 0.0
24/08:00am 28.4 23.5 7.1 26 11.5 N 22 35 12 19 1015.0 1012.9 0.0
24/07:30am 27.3 22.9 6.7 27 11.0 N 19 26 10 14 1015.0 1012.9 0.0
24/07:00am 23.5 20.9 6.3 33 8.9 N 9 11 5 6 1014.9 1012.7 0.0
24/06:30am 18.3 16.0 5.5 43 6.3 NNE 7 11 4 6 1014.5 1012.3 0.0
24/06:00am 18.8 16.3 4.6 39 6.9 NE 7 11 4 6 1014.2 1012.0 0.0
24/05:30am 20.0 17.6 5.3 38 7.3 NE 7 11 4 6 1013.7 1011.5 0.0
24/05:00am 19.4 18.3 5.1 39 7.1 CALM 0 0 0 0 1013.2 1011.0 0.0
24/04:30am 19.5 17.6 4.8 38 7.2 SE 4 7 2 4 1013.0 1010.8 0.0
24/04:00am 20.2 18.3 4.7 36 7.6 SSE 4 11 2 6 1012.8 1010.6 0.0
24/03:30am 21.2 19.9 4.3 33 8.3 CALM 0 0 0 0 1012.5 1010.4 0.0
24/03:00am 21.5 19.9 4.6 33 8.4 S 2 7 1 4 1012.4 1010.3 0.0
24/02:30am 21.3 20.1 4.4 33 8.4 CALM 0 0 0 0 1012.9 1010.7 0.0
24/02:00am 22.2 21.0 4.7 32 8.8 CALM 0 0 0 0 1013.3 1011.1 0.0
24/01:30am 21.6 20.4 4.7 33 8.4 CALM 0 0 0 0 1013.6 1011.4 0.0
24/01:00am 23.3 22.3 5.7 32 9.0 CALM 0 0 0 0 1013.8 1011.6 0.0
24/12:30am 22.8 21.1 3.9 29 9.4 ESE 2 7 1 4 1014.0 1011.8 0.0
24/12:00am 25.2 22.8 5.4 28 10.2 E 7 7 4 4 1014.3 1012.1 0.0
 
Date/Time
CST
Temp
°C
App
Temp
°C
Dew
Point
Rel
Hum
%
Delta-T
°C
Wind Press
QNH
hPa
Press
MSL
hPa
Rain
since 9 am
mm
Dir
 
Spd
km/h
Gust
km/h
Spd
kts
Gust
kts
23/11:30pm 25.2 22.7 4.9 27 10.4 E 7 9 4 5 1014.5 1012.3 0.0
23/11:00pm 25.5 23.1 5.1 27 10.5 SE 7 9 4 5 1014.7 1012.5 0.0
23/10:30pm 25.8 23.1 3.7 24 11.1 SE 7 9 4 5 1014.7 1012.5 0.0
23/10:00pm 26.8 23.5 2.7 21 12.0 E 9 11 5 6 1014.6 1012.4 0.0
23/09:30pm 27.2 23.9 2.3 20 12.3 E 9 11 5 6 1014.2 1012.0 0.0
23/09:00pm 27.4 24.3 0.2 17 13.0 E 6 9 3 5 1013.7 1011.5 0.0
23/08:30pm 28.3 24.9 -0.8 15 13.7 E 7 9 4 5 1013.5 1011.3 0.0
23/08:00pm 29.4 25.6 -0.9 14 14.4 E 9 11 5 6 1013.2 1011.0 0.0
23/07:30pm 30.9 27.1 -0.7 13 15.2 ESE 9 11 5 6 1013.0 1010.8 0.0
23/07:00pm 33.4 29.2 -1.0 11 16.8 E 11 15 6 8 1012.4 1010.3 0.0
23/06:30pm 35.4 31.2 -0.8 10 18.0 ENE 11 17 6 9 1011.8 1009.6 0.0
23/06:00pm 36.6 31.8 0.1 10 18.5 E 15 20 8 11 1011.5 1009.3 0.0
23/05:30pm 37.1 33.8 0.4 10 18.8 ESE 7 9 4 5 1011.2 1009.0 0.0
23/05:00pm 37.7 32.1 0.9 10 19.0 ENE 20 35 11 19 1011.1 1008.9 0.0
23/04:30pm 37.6 32.1 0.8 10 19.0 ENE 19 30 10 16 1011.1 1008.9 0.0
23/04:00pm 37.5 31.8 0.7 10 18.9 ENE 20 35 11 19 1011.3 1009.1 0.0
23/03:30pm 37.6 33.6 0.8 10 19.0 E 11 17 6 9 1011.3 1009.1 0.0
23/03:00pm 37.7 32.6 0.9 10 19.0 E 17 28 9 15 1011.5 1009.3 0.0
23/02:30pm 38.8 33.3 1.7 10 19.5 ENE 20 35 11 19 1011.9 1009.7 0.0
23/02:00pm 38.8 33.7 3.1 11 19.2 ENE 19 30 10 16 1012.1 1010.0 0.0
23/01:30pm 37.5 33.0 2.1 11 18.6 N 15 22 8 12 1012.8 1010.6 0.0
23/01:00pm 37.6 31.4 2.1 11 18.7 NE 24 39 13 21 1013.4 1011.2 0.0
23/12:30pm 37.6 31.8 2.1 11 18.7 NNE 22 41 12 22 1013.8 1011.6 0.0
23/12:00pm 37.1 32.6 4.1 13 17.8 ENE 17 32 9 17 1014.3 1012.1 0.0
23/11:30am 35.4 30.2 3.8 14 16.8 N 20 33 11 18 1014.8 1012.6 0.0
23/11:00am 35.3 29.2 4.8 15 16.5 N 26 41 14 22 1015.1 1013.0 0.0
23/10:30am 34.3 28.6 6.6 18 15.3 N 26 35 14 19 1015.4 1013.3 0.0
23/10:00am 33.5 27.0 6.7 19 14.8 N 30 43 16 23 1015.6 1013.5 0.0

Other Formats:

Comma delimited format used in spreadsheet applications
http://www.bom.gov.au/fwo/IDD60801/IDD60801.94231.axf

JavaScript Object Notation format (JSON) in row-major order
http://www.bom.gov.au/fwo/IDD60801/IDD60801.94231.json